sensor_id;sensor_type;location;lat;lon;timestamp;temperature;humidity
851;DHT22;412;51.400;7.480;2023-03-23T00:01:16;13.80;99.90
851;DHT22;412;51.400;7.480;2023-03-23T00:03:53;13.70;99.90
851;DHT22;412;51.400;7.480;2023-03-23T00:06:19;13.80;99.90
851;DHT22;412;51.400;7.480;2023-03-23T00:08:50;13.80;99.90
851;DHT22;412;51.400;7.480;2023-03-23T00:11:31;13.80;99.90
851;DHT22;412;51.400;7.480;2023-03-23T00:14:00;13.70;99.90
851;DHT22;412;51.400;7.480;2023-03-23T00:16:29;13.70;99.90
851;DHT22;412;51.400;7.480;2023-03-23T00:19:04;13.60;99.90
851;DHT22;412;51.400;7.480;2023-03-23T00:21:33;13.70;99.90
851;DHT22;412;51.400;7.480;2023-03-23T00:24:08;13.60;99.90
851;DHT22;412;51.400;7.480;2023-03-23T00:26:37;13.60;99.90
851;DHT22;412;51.400;7.480;2023-03-23T00:29:16;13.60;99.90
851;DHT22;412;51.400;7.480;2023-03-23T00:31:43;13.50;99.90
851;DHT22;412;51.400;7.480;2023-03-23T00:34:17;13.60;99.90
851;DHT22;412;51.400;7.480;2023-03-23T00:36:46;13.60;99.90
851;DHT22;412;51.400;7.480;2023-03-23T00:39:12;13.60;99.90
851;DHT22;412;51.400;7.480;2023-03-23T00:41:38;13.60;99.90
851;DHT22;412;51.400;7.480;2023-03-23T00:44:04;13.70;99.90
851;DHT22;412;51.400;7.480;2023-03-23T00:46:30;13.60;99.90
851;DHT22;412;51.400;7.480;2023-03-23T00:48:56;13.70;99.90
851;DHT22;412;51.400;7.480;2023-03-23T00:51:23;13.70;99.90
851;DHT22;412;51.400;7.480;2023-03-23T00:53:49;13.70;99.90
851;DHT22;412;51.400;7.480;2023-03-23T00:56:15;13.60;99.90
851;DHT22;412;51.400;7.480;2023-03-23T00:58:41;13.60;99.90
851;DHT22;412;51.400;7.480;2023-03-23T01:01:07;13.70;99.90
851;DHT22;412;51.400;7.480;2023-03-23T01:03:33;13.70;99.90
851;DHT22;412;51.400;7.480;2023-03-23T01:06:05;13.80;99.90
851;DHT22;412;51.400;7.480;2023-03-23T01:08:31;13.80;99.90
851;DHT22;412;51.400;7.480;2023-03-23T01:11:03;13.80;99.90
851;DHT22;412;51.400;7.480;2023-03-23T01:13:29;13.90;99.90
851;DHT22;412;51.400;7.480;2023-03-23T01:15:55;13.80;99.90
851;DHT22;412;51.400;7.480;2023-03-23T01:18:20;13.90;99.90
851;DHT22;412;51.400;7.480;2023-03-23T01:20:46;13.80;99.90
851;DHT22;412;51.400;7.480;2023-03-23T01:23:12;13.90;99.90
851;DHT22;412;51.400;7.480;2023-03-23T01:25:37;13.90;99.90
851;DHT22;412;51.400;7.480;2023-03-23T01:28:03;13.90;99.90
851;DHT22;412;51.400;7.480;2023-03-23T01:30:29;13.90;99.90
851;DHT22;412;51.400;7.480;2023-03-23T01:32:55;13.90;99.90
851;DHT22;412;51.400;7.480;2023-03-23T01:35:21;13.90;99.90
851;DHT22;412;51.400;7.480;2023-03-23T01:37:46;14.00;99.90
851;DHT22;412;51.400;7.480;2023-03-23T01:40:14;14.10;99.90
851;DHT22;412;51.400;7.480;2023-03-23T01:42:40;14.10;99.90
851;DHT22;412;51.400;7.480;2023-03-23T01:45:24;14.20;99.90
851;DHT22;412;51.400;7.480;2023-03-23T01:47:59;14.10;99.90
851;DHT22;412;51.400;7.480;2023-03-23T01:50:26;14.10;99.90
851;DHT22;412;51.400;7.480;2023-03-23T01:52:56;14.10;99.90
851;DHT22;412;51.400;7.480;2023-03-23T01:55:24;14.00;99.90
851;DHT22;412;51.400;7.480;2023-03-23T01:57:51;14.00;99.90
851;DHT22;412;51.400;7.480;2023-03-23T02:00:18;14.00;99.90
851;DHT22;412;51.400;7.480;2023-03-23T02:02:48;14.00;99.90
851;DHT22;412;51.400;7.480;2023-03-23T02:05:21;13.90;99.90
851;DHT22;412;51.400;7.480;2023-03-23T02:07:50;13.90;99.90
851;DHT22;412;51.400;7.480;2023-03-23T02:10:16;13.90;99.90
851;DHT22;412;51.400;7.480;2023-03-23T02:12:42;14.00;99.90
851;DHT22;412;51.400;7.480;2023-03-23T02:15:08;13.90;99.90
851;DHT22;412;51.400;7.480;2023-03-23T02:17:45;13.90;99.90
851;DHT22;412;51.400;7.480;2023-03-23T02:20:33;13.90;99.90
851;DHT22;412;51.400;7.480;2023-03-23T02:33:40;13.30;99.90
851;DHT22;412;51.400;7.480;2023-03-23T02:36:36;13.40;99.90
851;DHT22;412;51.400;7.480;2023-03-23T02:39:17;13.40;99.90
851;DHT22;412;51.400;7.480;2023-03-23T02:41:49;13.20;99.90
851;DHT22;412;51.400;7.480;2023-03-23T02:44:17;13.00;99.90
851;DHT22;412;51.400;7.480;2023-03-23T02:46:44;13.00;99.90
851;DHT22;412;51.400;7.480;2023-03-23T02:49:12;13.00;99.90
851;DHT22;412;51.400;7.480;2023-03-23T02:51:40;13.10;99.90
851;DHT22;412;51.400;7.480;2023-03-23T02:54:07;12.80;99.90
851;DHT22;412;51.400;7.480;2023-03-23T02:56:34;12.90;99.90
851;DHT22;412;51.400;7.480;2023-03-23T02:59:00;12.90;99.90
851;DHT22;412;51.400;7.480;2023-03-23T03:03:52;13.10;99.90
851;DHT22;412;51.400;7.480;2023-03-23T03:11:55;13.10;99.90
851;DHT22;412;51.400;7.480;2023-03-23T03:14:26;13.10;99.90
851;DHT22;412;51.400;7.480;2023-03-23T03:19:32;13.30;99.90
851;DHT22;412;51.400;7.480;2023-03-23T03:21:59;13.20;99.90
851;DHT22;412;51.400;7.480;2023-03-23T03:24:28;13.20;99.90
851;DHT22;412;51.400;7.480;2023-03-23T03:26:57;13.30;99.90
851;DHT22;412;51.400;7.480;2023-03-23T03:29:31;13.40;99.90
851;DHT22;412;51.400;7.480;2023-03-23T03:31:59;13.40;99.90
851;DHT22;412;51.400;7.480;2023-03-23T03:34:26;13.30;99.90
851;DHT22;412;51.400;7.480;2023-03-23T03:36:54;13.40;99.90
851;DHT22;412;51.400;7.480;2023-03-23T03:39:24;13.40;99.90
851;DHT22;412;51.400;7.480;2023-03-23T03:41:50;13.40;99.90
851;DHT22;412;51.400;7.480;2023-03-23T03:44:16;13.40;99.90
851;DHT22;412;51.400;7.480;2023-03-23T03:46:42;13.30;99.90
851;DHT22;412;51.400;7.480;2023-03-23T03:49:09;13.30;99.90
851;DHT22;412;51.400;7.480;2023-03-23T03:51:37;13.30;99.90
851;DHT22;412;51.400;7.480;2023-03-23T03:54:03;13.40;99.90
851;DHT22;412;51.400;7.480;2023-03-23T03:56:29;13.40;99.90
851;DHT22;412;51.400;7.480;2023-03-23T03:58:57;13.40;99.90
851;DHT22;412;51.400;7.480;2023-03-23T04:01:22;13.40;99.90
851;DHT22;412;51.400;7.480;2023-03-23T04:03:50;13.40;99.90
851;DHT22;412;51.400;7.480;2023-03-23T04:06:16;13.40;99.90
851;DHT22;412;51.400;7.480;2023-03-23T04:08:43;13.40;99.90
851;DHT22;412;51.400;7.480;2023-03-23T04:11:11;13.40;99.90
851;DHT22;412;51.400;7.480;2023-03-23T04:13:38;13.50;99.90
851;DHT22;412;51.400;7.480;2023-03-23T04:16:04;13.50;99.90
851;DHT22;412;51.400;7.480;2023-03-23T04:18:30;13.50;99.90
851;DHT22;412;51.400;7.480;2023-03-23T04:20:58;13.40;99.90
851;DHT22;412;51.400;7.480;2023-03-23T04:23:25;13.40;99.90
851;DHT22;412;51.400;7.480;2023-03-23T04:25:51;13.30;99.90
851;DHT22;412;51.400;7.480;2023-03-23T04:28:19;13.40;99.90
851;DHT22;412;51.400;7.480;2023-03-23T04:30:52;13.30;99.90
851;DHT22;412;51.400;7.480;2023-03-23T04:33:25;13.50;99.90
851;DHT22;412;51.400;7.480;2023-03-23T04:35:56;13.40;99.90
851;DHT22;412;51.400;7.480;2023-03-23T04:38:27;13.40;99.90
851;DHT22;412;51.400;7.480;2023-03-23T04:40:54;13.30;99.90
851;DHT22;412;51.400;7.480;2023-03-23T04:43:21;13.30;99.90
851;DHT22;412;51.400;7.480;2023-03-23T04:45:55;13.30;99.90
851;DHT22;412;51.400;7.480;2023-03-23T04:48:28;13.30;99.90
851;DHT22;412;51.400;7.480;2023-03-23T04:50:55;13.30;99.90
851;DHT22;412;51.400;7.480;2023-03-23T04:53:22;13.40;99.90
851;DHT22;412;51.400;7.480;2023-03-23T04:55:48;13.30;99.90
851;DHT22;412;51.400;7.480;2023-03-23T04:58:16;13.30;99.90
851;DHT22;412;51.400;7.480;2023-03-23T05:00:42;13.30;99.90
851;DHT22;412;51.400;7.480;2023-03-23T05:03:16;13.30;99.90
851;DHT22;412;51.400;7.480;2023-03-23T05:05:42;13.20;99.90
851;DHT22;412;51.400;7.480;2023-03-23T05:08:08;13.30;99.90
851;DHT22;412;51.400;7.480;2023-03-23T05:10:34;13.40;99.90
851;DHT22;412;51.400;7.480;2023-03-23T05:13:00;13.40;99.90
851;DHT22;412;51.400;7.480;2023-03-23T05:15:25;13.40;99.90
851;DHT22;412;51.400;7.480;2023-03-23T05:17:51;13.30;99.90
851;DHT22;412;51.400;7.480;2023-03-23T05:20:17;13.40;99.90
851;DHT22;412;51.400;7.480;2023-03-23T05:22:47;13.40;99.90
851;DHT22;412;51.400;7.480;2023-03-23T05:25:15;13.40;99.90
851;DHT22;412;51.400;7.480;2023-03-23T05:27:44;13.30;99.90
851;DHT22;412;51.400;7.480;2023-03-23T05:30:15;13.30;99.90
851;DHT22;412;51.400;7.480;2023-03-23T05:32:43;13.30;99.90
851;DHT22;412;51.400;7.480;2023-03-23T05:35:11;13.30;99.90
851;DHT22;412;51.400;7.480;2023-03-23T05:37:37;13.20;99.90
851;DHT22;412;51.400;7.480;2023-03-23T05:40:05;13.30;99.90
851;DHT22;412;51.400;7.480;2023-03-23T05:42:33;13.40;99.90
851;DHT22;412;51.400;7.480;2023-03-23T05:45:00;13.30;99.90
851;DHT22;412;51.400;7.480;2023-03-23T05:47:27;13.40;99.90
851;DHT22;412;51.400;7.480;2023-03-23T05:49:52;13.50;99.90
851;DHT22;412;51.400;7.480;2023-03-23T05:52:19;13.50;99.90
851;DHT22;412;51.400;7.480;2023-03-23T05:54:44;13.50;99.90
851;DHT22;412;51.400;7.480;2023-03-23T05:57:10;13.40;99.90
851;DHT22;412;51.400;7.480;2023-03-23T05:59:36;13.30;99.90
851;DHT22;412;51.400;7.480;2023-03-23T06:02:03;13.40;99.90
851;DHT22;412;51.400;7.480;2023-03-23T06:04:29;13.40;99.90
851;DHT22;412;51.400;7.480;2023-03-23T06:06:56;13.40;99.90
851;DHT22;412;51.400;7.480;2023-03-23T06:09:22;13.50;99.90
851;DHT22;412;51.400;7.480;2023-03-23T06:11:49;13.50;99.90
851;DHT22;412;51.400;7.480;2023-03-23T06:14:15;13.50;99.90
851;DHT22;412;51.400;7.480;2023-03-23T06:16:41;13.50;99.90
851;DHT22;412;51.400;7.480;2023-03-23T06:19:07;13.50;99.90
851;DHT22;412;51.400;7.480;2023-03-23T06:21:33;13.60;99.90
851;DHT22;412;51.400;7.480;2023-03-23T06:23:59;13.70;99.90
851;DHT22;412;51.400;7.480;2023-03-23T06:26:32;13.70;99.90
851;DHT22;412;51.400;7.480;2023-03-23T06:28:59;13.70;99.90
851;DHT22;412;51.400;7.480;2023-03-23T06:31:26;13.70;99.90
851;DHT22;412;51.400;7.480;2023-03-23T06:33:54;13.70;99.90
851;DHT22;412;51.400;7.480;2023-03-23T06:36:20;13.60;99.90
851;DHT22;412;51.400;7.480;2023-03-23T06:38:48;13.50;99.90
851;DHT22;412;51.400;7.480;2023-03-23T06:41:14;13.50;99.90
851;DHT22;412;51.400;7.480;2023-03-23T06:43:39;13.50;99.90
851;DHT22;412;51.400;7.480;2023-03-23T06:46:06;13.60;99.90
851;DHT22;412;51.400;7.480;2023-03-23T06:48:32;13.70;99.90
851;DHT22;412;51.400;7.480;2023-03-23T06:50:58;13.70;99.90
851;DHT22;412;51.400;7.480;2023-03-23T06:53:24;13.90;99.90
851;DHT22;412;51.400;7.480;2023-03-23T06:55:50;13.90;99.90
851;DHT22;412;51.400;7.480;2023-03-23T06:58:16;13.90;99.90
851;DHT22;412;51.400;7.480;2023-03-23T07:00:42;13.90;99.90
851;DHT22;412;51.400;7.480;2023-03-23T07:03:08;13.90;99.90
851;DHT22;412;51.400;7.480;2023-03-23T07:05:34;14.00;99.90
851;DHT22;412;51.400;7.480;2023-03-23T07:08:03;14.00;99.90
851;DHT22;412;51.400;7.480;2023-03-23T07:10:29;13.90;99.90
851;DHT22;412;51.400;7.480;2023-03-23T07:12:55;13.90;99.90
851;DHT22;412;51.400;7.480;2023-03-23T07:15:22;13.90;99.90
851;DHT22;412;51.400;7.480;2023-03-23T07:17:48;14.00;99.90
851;DHT22;412;51.400;7.480;2023-03-23T07:20:14;13.90;99.90
851;DHT22;412;51.400;7.480;2023-03-23T07:22:40;14.00;99.90
851;DHT22;412;51.400;7.480;2023-03-23T07:25:07;14.00;99.90
851;DHT22;412;51.400;7.480;2023-03-23T07:27:33;14.00;99.90
851;DHT22;412;51.400;7.480;2023-03-23T07:29:59;14.10;99.90
851;DHT22;412;51.400;7.480;2023-03-23T07:32:24;14.00;99.90
851;DHT22;412;51.400;7.480;2023-03-23T07:34:50;14.00;99.90
851;DHT22;412;51.400;7.480;2023-03-23T07:37:17;14.00;99.90
851;DHT22;412;51.400;7.480;2023-03-23T07:39:43;14.10;99.90
851;DHT22;412;51.400;7.480;2023-03-23T07:42:09;14.10;99.90
851;DHT22;412;51.400;7.480;2023-03-23T07:44:35;14.10;99.90
851;DHT22;412;51.400;7.480;2023-03-23T07:47:01;14.10;99.90
851;DHT22;412;51.400;7.480;2023-03-23T07:49:27;14.10;99.90
851;DHT22;412;51.400;7.480;2023-03-23T07:51:53;14.10;99.90
851;DHT22;412;51.400;7.480;2023-03-23T07:54:19;14.20;99.90
851;DHT22;412;51.400;7.480;2023-03-23T07:56:44;14.20;99.90
851;DHT22;412;51.400;7.480;2023-03-23T07:59:11;14.30;99.90
851;DHT22;412;51.400;7.480;2023-03-23T08:01:38;14.30;99.90
851;DHT22;412;51.400;7.480;2023-03-23T08:04:05;14.30;99.90
851;DHT22;412;51.400;7.480;2023-03-23T08:06:33;14.30;99.90
851;DHT22;412;51.400;7.480;2023-03-23T08:08:59;14.30;99.90
851;DHT22;412;51.400;7.480;2023-03-23T08:11:26;14.30;99.90
851;DHT22;412;51.400;7.480;2023-03-23T08:13:51;14.40;99.90
851;DHT22;412;51.400;7.480;2023-03-23T08:16:18;14.50;99.90
851;DHT22;412;51.400;7.480;2023-03-23T08:18:45;14.70;99.90
851;DHT22;412;51.400;7.480;2023-03-23T08:21:12;14.70;99.90
851;DHT22;412;51.400;7.480;2023-03-23T08:23:38;14.70;99.90
851;DHT22;412;51.400;7.480;2023-03-23T08:26:06;14.70;99.90
851;DHT22;412;51.400;7.480;2023-03-23T08:28:36;14.70;99.90
851;DHT22;412;51.400;7.480;2023-03-23T08:31:08;14.70;99.90
851;DHT22;412;51.400;7.480;2023-03-23T08:33:36;14.70;99.90
851;DHT22;412;51.400;7.480;2023-03-23T08:36:02;14.60;99.90
851;DHT22;412;51.400;7.480;2023-03-23T08:38:28;14.60;99.90
851;DHT22;412;51.400;7.480;2023-03-23T08:40:59;14.50;99.90
851;DHT22;412;51.400;7.480;2023-03-23T08:43:25;14.50;99.90
851;DHT22;412;51.400;7.480;2023-03-23T08:45:53;14.50;99.90
851;DHT22;412;51.400;7.480;2023-03-23T08:48:19;14.50;99.90
851;DHT22;412;51.400;7.480;2023-03-23T08:50:45;14.50;99.90
851;DHT22;412;51.400;7.480;2023-03-23T08:53:11;14.60;99.90
851;DHT22;412;51.400;7.480;2023-03-23T08:55:37;14.50;99.90
851;DHT22;412;51.400;7.480;2023-03-23T08:58:04;14.60;99.90
851;DHT22;412;51.400;7.480;2023-03-23T09:00:30;14.60;99.90
851;DHT22;412;51.400;7.480;2023-03-23T09:02:56;14.50;99.90
851;DHT22;412;51.400;7.480;2023-03-23T09:05:26;14.60;99.90
851;DHT22;412;51.400;7.480;2023-03-23T09:07:55;14.60;99.90
851;DHT22;412;51.400;7.480;2023-03-23T09:10:23;14.70;99.90
851;DHT22;412;51.400;7.480;2023-03-23T09:12:51;14.80;99.90
851;DHT22;412;51.400;7.480;2023-03-23T09:15:17;14.90;99.90
851;DHT22;412;51.400;7.480;2023-03-23T09:17:45;14.90;99.90
851;DHT22;412;51.400;7.480;2023-03-23T09:20:13;14.90;99.90
851;DHT22;412;51.400;7.480;2023-03-23T09:22:41;14.90;99.90
851;DHT22;412;51.400;7.480;2023-03-23T09:25:10;14.80;99.90
851;DHT22;412;51.400;7.480;2023-03-23T09:27:37;14.80;99.90
851;DHT22;412;51.400;7.480;2023-03-23T09:30:11;14.80;99.90
851;DHT22;412;51.400;7.480;2023-03-23T09:32:38;14.80;99.90
851;DHT22;412;51.400;7.480;2023-03-23T09:35:06;14.70;99.90
851;DHT22;412;51.400;7.480;2023-03-23T09:37:34;14.80;99.90
851;DHT22;412;51.400;7.480;2023-03-23T09:40:02;14.70;99.90
851;DHT22;412;51.400;7.480;2023-03-23T09:45:19;14.70;99.90
851;DHT22;412;51.400;7.480;2023-03-23T09:48:13;14.70;99.90
851;DHT22;412;51.400;7.480;2023-03-23T09:50:44;14.70;99.90
851;DHT22;412;51.400;7.480;2023-03-23T09:53:17;14.70;99.90
851;DHT22;412;51.400;7.480;2023-03-23T09:55:44;14.80;99.90
851;DHT22;412;51.400;7.480;2023-03-23T09:58:31;14.80;99.90
851;DHT22;412;51.400;7.480;2023-03-23T10:03:40;14.80;99.90
851;DHT22;412;51.400;7.480;2023-03-23T10:06:10;14.80;99.90
851;DHT22;412;51.400;7.480;2023-03-23T10:08:41;14.80;99.90
851;DHT22;412;51.400;7.480;2023-03-23T10:17:03;15.00;99.90
851;DHT22;412;51.400;7.480;2023-03-23T10:22:11;15.10;99.90
851;DHT22;412;51.400;7.480;2023-03-23T10:30:30;15.50;99.90
851;DHT22;412;51.400;7.480;2023-03-23T10:35:57;15.90;99.30
851;DHT22;412;51.400;7.480;2023-03-23T10:41:19;15.90;98.50
851;DHT22;412;51.400;7.480;2023-03-23T10:43:46;15.80;98.60
851;DHT22;412;51.400;7.480;2023-03-23T10:48:44;15.80;99.90
851;DHT22;412;51.400;7.480;2023-03-23T10:51:12;15.70;99.90
851;DHT22;412;51.400;7.480;2023-03-23T10:53:50;15.50;99.90
851;DHT22;412;51.400;7.480;2023-03-23T10:56:48;15.40;99.90
851;DHT22;412;51.400;7.480;2023-03-23T10:59:41;15.20;99.90
851;DHT22;412;51.400;7.480;2023-03-23T11:02:16;14.90;99.90
851;DHT22;412;51.400;7.480;2023-03-23T11:04:59;14.90;99.90
851;DHT22;412;51.400;7.480;2023-03-23T11:07:29;14.70;99.90
851;DHT22;412;51.400;7.480;2023-03-23T11:09:59;14.60;99.90
851;DHT22;412;51.400;7.480;2023-03-23T11:12:33;14.50;99.90
851;DHT22;412;51.400;7.480;2023-03-23T11:15:22;14.40;99.90
851;DHT22;412;51.400;7.480;2023-03-23T11:18:06;14.30;99.90
851;DHT22;412;51.400;7.480;2023-03-23T11:20:38;14.30;99.90
851;DHT22;412;51.400;7.480;2023-03-23T11:23:21;14.20;99.90
851;DHT22;412;51.400;7.480;2023-03-23T11:26:05;14.20;99.90
851;DHT22;412;51.400;7.480;2023-03-23T11:28:34;14.10;99.90
851;DHT22;412;51.400;7.480;2023-03-23T11:31:03;14.00;99.90
851;DHT22;412;51.400;7.480;2023-03-23T11:33:52;13.90;99.90
851;DHT22;412;51.400;7.480;2023-03-23T11:36:16;14.00;99.90
851;DHT22;412;51.400;7.480;2023-03-23T11:38:43;13.90;99.90
851;DHT22;412;51.400;7.480;2023-03-23T11:41:12;13.90;99.90
851;DHT22;412;51.400;7.480;2023-03-23T11:43:41;13.90;99.90
851;DHT22;412;51.400;7.480;2023-03-23T11:46:34;13.90;99.90
851;DHT22;412;51.400;7.480;2023-03-23T11:49:12;13.90;99.90
851;DHT22;412;51.400;7.480;2023-03-23T11:51:44;13.90;99.90
851;DHT22;412;51.400;7.480;2023-03-23T11:54:16;13.80;99.90
851;DHT22;412;51.400;7.480;2023-03-23T11:56:44;13.90;99.90
851;DHT22;412;51.400;7.480;2023-03-23T11:59:16;13.80;99.90
851;DHT22;412;51.400;7.480;2023-03-23T12:15:26;13.90;99.90
851;DHT22;412;51.400;7.480;2023-03-23T12:20:44;13.90;99.90
851;DHT22;412;51.400;7.480;2023-03-23T12:28:49;13.90;99.90
851;DHT22;412;51.400;7.480;2023-03-23T12:31:46;13.90;99.90
851;DHT22;412;51.400;7.480;2023-03-23T12:34:30;13.90;99.90
851;DHT22;412;51.400;7.480;2023-03-23T12:37:22;14.10;99.90
851;DHT22;412;51.400;7.480;2023-03-23T12:48:26;14.20;99.90
851;DHT22;412;51.400;7.480;2023-03-23T12:53:50;14.30;99.90
851;DHT22;412;51.400;7.480;2023-03-23T12:56:30;14.30;99.90
851;DHT22;412;51.400;7.480;2023-03-23T12:59:25;14.30;99.90
851;DHT22;412;51.400;7.480;2023-03-23T13:01:58;14.30;99.90
851;DHT22;412;51.400;7.480;2023-03-23T13:04:36;14.40;99.90
851;DHT22;412;51.400;7.480;2023-03-23T13:07:06;14.30;99.90
851;DHT22;412;51.400;7.480;2023-03-23T13:12:22;14.20;99.90
851;DHT22;412;51.400;7.480;2023-03-23T13:18:18;14.30;99.90
851;DHT22;412;51.400;7.480;2023-03-23T13:20:58;14.30;99.90
851;DHT22;412;51.400;7.480;2023-03-23T13:23:31;14.30;99.90
851;DHT22;412;51.400;7.480;2023-03-23T13:26:00;14.30;99.90
851;DHT22;412;51.400;7.480;2023-03-23T13:28:29;14.30;99.90
851;DHT22;412;51.400;7.480;2023-03-23T13:31:12;14.30;99.90
851;DHT22;412;51.400;7.480;2023-03-23T13:33:38;14.40;99.90
851;DHT22;412;51.400;7.480;2023-03-23T13:36:12;14.40;99.90
851;DHT22;412;51.400;7.480;2023-03-23T13:38:45;14.40;99.90
851;DHT22;412;51.400;7.480;2023-03-23T13:41:14;14.50;99.90
851;DHT22;412;51.400;7.480;2023-03-23T13:43:42;14.50;99.90
851;DHT22;412;51.400;7.480;2023-03-23T13:48:48;14.70;99.90
851;DHT22;412;51.400;7.480;2023-03-23T13:51:46;14.80;99.90
851;DHT22;412;51.400;7.480;2023-03-23T13:56:56;14.80;99.90
851;DHT22;412;51.400;7.480;2023-03-23T13:59:34;14.80;99.90
851;DHT22;412;51.400;7.480;2023-03-23T14:04:55;14.80;99.90
851;DHT22;412;51.400;7.480;2023-03-23T14:07:21;14.80;99.90
851;DHT22;412;51.400;7.480;2023-03-23T14:09:46;14.80;99.90
851;DHT22;412;51.400;7.480;2023-03-23T14:12:25;14.80;99.90
851;DHT22;412;51.400;7.480;2023-03-23T14:14:56;14.70;99.90
851;DHT22;412;51.400;7.480;2023-03-23T14:17:29;14.70;99.90
851;DHT22;412;51.400;7.480;2023-03-23T14:19:57;14.70;99.90
851;DHT22;412;51.400;7.480;2023-03-23T14:22:35;14.70;99.90
851;DHT22;412;51.400;7.480;2023-03-23T14:25:10;14.70;99.90
851;DHT22;412;51.400;7.480;2023-03-23T14:27:36;14.70;99.90
851;DHT22;412;51.400;7.480;2023-03-23T14:30:06;14.80;99.90
851;DHT22;412;51.400;7.480;2023-03-23T14:32:33;14.90;99.90
851;DHT22;412;51.400;7.480;2023-03-23T14:35:07;14.90;99.90
851;DHT22;412;51.400;7.480;2023-03-23T14:37:35;14.90;99.90
851;DHT22;412;51.400;7.480;2023-03-23T14:40:01;14.90;99.90
851;DHT22;412;51.400;7.480;2023-03-23T14:42:33;14.90;99.90
851;DHT22;412;51.400;7.480;2023-03-23T14:45:01;14.90;99.90
851;DHT22;412;51.400;7.480;2023-03-23T14:47:38;14.90;99.90
851;DHT22;412;51.400;7.480;2023-03-23T14:50:18;14.90;99.90
851;DHT22;412;51.400;7.480;2023-03-23T14:52:47;14.90;99.90
851;DHT22;412;51.400;7.480;2023-03-23T14:55:21;14.90;99.90
851;DHT22;412;51.400;7.480;2023-03-23T14:57:51;14.90;99.90
851;DHT22;412;51.400;7.480;2023-03-23T15:00:27;14.90;99.90
851;DHT22;412;51.400;7.480;2023-03-23T15:02:57;15.00;99.90
851;DHT22;412;51.400;7.480;2023-03-23T15:05:31;15.10;99.90
851;DHT22;412;51.400;7.480;2023-03-23T15:08:05;15.20;99.90
851;DHT22;412;51.400;7.480;2023-03-23T15:10:32;15.30;99.90
851;DHT22;412;51.400;7.480;2023-03-23T15:12:58;15.40;99.90
851;DHT22;412;51.400;7.480;2023-03-23T15:15:32;15.50;99.90
851;DHT22;412;51.400;7.480;2023-03-23T15:17:59;15.60;99.90
851;DHT22;412;51.400;7.480;2023-03-23T15:20:29;15.50;99.90
851;DHT22;412;51.400;7.480;2023-03-23T15:22:56;15.40;99.90
851;DHT22;412;51.400;7.480;2023-03-23T15:30:37;15.30;99.90
851;DHT22;412;51.400;7.480;2023-03-23T15:33:12;15.20;99.90
851;DHT22;412;51.400;7.480;2023-03-23T15:35:44;15.20;99.90
851;DHT22;412;51.400;7.480;2023-03-23T15:38:37;15.20;99.90
851;DHT22;412;51.400;7.480;2023-03-23T15:41:06;15.10;99.90
851;DHT22;412;51.400;7.480;2023-03-23T15:43:48;15.10;99.90
851;DHT22;412;51.400;7.480;2023-03-23T15:51:28;14.90;99.90
851;DHT22;412;51.400;7.480;2023-03-23T15:53:56;15.00;99.90
851;DHT22;412;51.400;7.480;2023-03-23T15:56:22;15.00;99.90
851;DHT22;412;51.400;7.480;2023-03-23T15:58:49;15.10;99.90
851;DHT22;412;51.400;7.480;2023-03-23T16:01:20;15.10;99.90
851;DHT22;412;51.400;7.480;2023-03-23T16:03:58;15.10;99.90
851;DHT22;412;51.400;7.480;2023-03-23T16:06:26;15.00;99.90
851;DHT22;412;51.400;7.480;2023-03-23T16:08:55;15.10;99.90
851;DHT22;412;51.400;7.480;2023-03-23T16:11:22;15.10;99.90
851;DHT22;412;51.400;7.480;2023-03-23T16:13:49;15.00;99.90
851;DHT22;412;51.400;7.480;2023-03-23T16:16:21;15.00;99.90
851;DHT22;412;51.400;7.480;2023-03-23T16:18:48;14.90;99.90
851;DHT22;412;51.400;7.480;2023-03-23T16:21:13;14.90;99.90
851;DHT22;412;51.400;7.480;2023-03-23T16:23:39;15.00;99.90
851;DHT22;412;51.400;7.480;2023-03-23T16:26:09;15.00;99.90
851;DHT22;412;51.400;7.480;2023-03-23T16:28:34;15.00;99.90
851;DHT22;412;51.400;7.480;2023-03-23T16:31:00;15.10;99.90
851;DHT22;412;51.400;7.480;2023-03-23T16:33:26;15.10;99.90
851;DHT22;412;51.400;7.480;2023-03-23T16:35:52;15.20;99.90
851;DHT22;412;51.400;7.480;2023-03-23T16:38:17;15.20;99.90
851;DHT22;412;51.400;7.480;2023-03-23T16:40:44;15.20;99.90
851;DHT22;412;51.400;7.480;2023-03-23T16:43:10;15.20;99.90
851;DHT22;412;51.400;7.480;2023-03-23T16:45:38;15.30;99.90
851;DHT22;412;51.400;7.480;2023-03-23T16:48:05;15.20;99.90
851;DHT22;412;51.400;7.480;2023-03-23T16:50:34;15.20;99.90
851;DHT22;412;51.400;7.480;2023-03-23T16:53:01;15.00;99.90
851;DHT22;412;51.400;7.480;2023-03-23T16:55:27;15.10;99.90
851;DHT22;412;51.400;7.480;2023-03-23T16:57:54;15.10;99.90
851;DHT22;412;51.400;7.480;2023-03-23T17:00:20;15.10;99.90
851;DHT22;412;51.400;7.480;2023-03-23T17:02:48;15.00;99.90
851;DHT22;412;51.400;7.480;2023-03-23T17:05:20;14.90;99.90
851;DHT22;412;51.400;7.480;2023-03-23T17:07:47;14.90;99.90
851;DHT22;412;51.400;7.480;2023-03-23T17:10:15;15.00;99.90
851;DHT22;412;51.400;7.480;2023-03-23T17:12:41;15.00;99.90
851;DHT22;412;51.400;7.480;2023-03-23T17:15:08;14.90;99.90
851;DHT22;412;51.400;7.480;2023-03-23T17:17:35;14.90;99.90
851;DHT22;412;51.400;7.480;2023-03-23T17:20:00;14.90;99.90
851;DHT22;412;51.400;7.480;2023-03-23T17:22:26;15.00;99.90
851;DHT22;412;51.400;7.480;2023-03-23T17:24:53;14.90;99.90
851;DHT22;412;51.400;7.480;2023-03-23T17:27:20;14.90;99.90
851;DHT22;412;51.400;7.480;2023-03-23T17:29:46;14.80;99.90
851;DHT22;412;51.400;7.480;2023-03-23T17:32:13;14.90;99.90
851;DHT22;412;51.400;7.480;2023-03-23T17:34:39;14.90;99.90
851;DHT22;412;51.400;7.480;2023-03-23T17:37:05;14.90;99.90
851;DHT22;412;51.400;7.480;2023-03-23T17:39:31;14.90;99.90
851;DHT22;412;51.400;7.480;2023-03-23T17:41:59;14.80;99.90
851;DHT22;412;51.400;7.480;2023-03-23T17:44:26;14.80;99.90
851;DHT22;412;51.400;7.480;2023-03-23T17:46:52;14.90;99.90
851;DHT22;412;51.400;7.480;2023-03-23T17:49:18;14.90;99.90
851;DHT22;412;51.400;7.480;2023-03-23T17:51:43;14.80;99.90
851;DHT22;412;51.400;7.480;2023-03-23T17:54:10;14.80;99.90
851;DHT22;412;51.400;7.480;2023-03-23T17:56:36;14.80;99.90
851;DHT22;412;51.400;7.480;2023-03-23T17:59:01;14.60;99.90
851;DHT22;412;51.400;7.480;2023-03-23T18:01:27;14.60;99.90
851;DHT22;412;51.400;7.480;2023-03-23T18:03:53;14.60;99.90
851;DHT22;412;51.400;7.480;2023-03-23T18:06:19;14.50;99.90
851;DHT22;412;51.400;7.480;2023-03-23T18:08:45;14.50;99.90
851;DHT22;412;51.400;7.480;2023-03-23T18:11:11;14.50;99.90
851;DHT22;412;51.400;7.480;2023-03-23T18:13:37;14.50;99.90
851;DHT22;412;51.400;7.480;2023-03-23T18:16:04;14.50;99.90
851;DHT22;412;51.400;7.480;2023-03-23T18:18:30;14.50;99.90
851;DHT22;412;51.400;7.480;2023-03-23T18:20:59;14.50;99.90
851;DHT22;412;51.400;7.480;2023-03-23T18:23:25;14.50;99.90
851;DHT22;412;51.400;7.480;2023-03-23T18:25:52;14.50;99.90
851;DHT22;412;51.400;7.480;2023-03-23T18:28:19;14.60;99.90
851;DHT22;412;51.400;7.480;2023-03-23T18:30:46;14.60;99.90
851;DHT22;412;51.400;7.480;2023-03-23T18:33:18;14.60;99.90
851;DHT22;412;51.400;7.480;2023-03-23T18:35:44;14.60;99.90